sensor_id;sensor_type;location;lat;lon;timestamp;P1;durP1;ratioP1;P2;durP2;ratioP2
64515;SDS011;50891;37.380;-122.076;2022-11-20T00:01:20;4.03;;;2.80;;
64515;SDS011;50891;37.380;-122.076;2022-11-20T00:03:48;3.75;;;2.53;;
64515;SDS011;50891;37.380;-122.076;2022-11-20T00:06:16;5.53;;;2.80;;
64515;SDS011;50891;37.380;-122.076;2022-11-20T00:08:44;4.95;;;2.67;;
64515;SDS011;50891;37.380;-122.076;2022-11-20T00:11:11;5.03;;;2.80;;
64515;SDS011;50891;37.380;-122.076;2022-11-20T00:13:40;4.50;;;2.60;;
64515;SDS011;50891;37.380;-122.076;2022-11-20T00:16:07;5.18;;;2.72;;
64515;SDS011;50891;37.380;-122.076;2022-11-20T00:18:36;4.20;;;2.70;;
64515;SDS011;50891;37.380;-122.076;2022-11-20T00:21:06;4.80;;;2.80;;
64515;SDS011;50891;37.380;-122.076;2022-11-20T00:23:35;6.95;;;2.88;;
64515;SDS011;50891;37.380;-122.076;2022-11-20T00:26:02;4.28;;;2.67;;
64515;SDS011;50891;37.380;-122.076;2022-11-20T00:28:30;4.47;;;2.67;;
64515;SDS011;50891;37.380;-122.076;2022-11-20T00:31:06;3.88;;;2.63;;
64515;SDS011;50891;37.380;-122.076;2022-11-20T00:33:35;4.68;;;2.78;;
64515;SDS011;50891;37.380;-122.076;2022-11-20T00:36:08;5.15;;;2.70;;
64515;SDS011;50891;37.380;-122.076;2022-11-20T00:38:40;3.30;;;2.45;;
64515;SDS011;50891;37.380;-122.076;2022-11-20T00:41:07;4.20;;;2.80;;
64515;SDS011;50891;37.380;-122.076;2022-11-20T00:43:35;3.78;;;2.60;;
64515;SDS011;50891;37.380;-122.076;2022-11-20T00:46:06;4.78;;;2.60;;
64515;SDS011;50891;37.380;-122.076;2022-11-20T00:48:34;4.18;;;2.60;;
64515;SDS011;50891;37.380;-122.076;2022-11-20T00:51:00;4.00;;;2.63;;
64515;SDS011;50891;37.380;-122.076;2022-11-20T00:53:26;4.00;;;2.63;;
64515;SDS011;50891;37.380;-122.076;2022-11-20T00:55:56;3.65;;;2.55;;
64515;SDS011;50891;37.380;-122.076;2022-11-20T00:58:23;5.03;;;2.70;;
64515;SDS011;50891;37.380;-122.076;2022-11-20T01:00:54;3.67;;;2.60;;
64515;SDS011;50891;37.380;-122.076;2022-11-20T01:03:34;4.60;;;2.85;;
64515;SDS011;50891;37.380;-122.076;2022-11-20T01:06:18;3.80;;;2.60;;
64515;SDS011;50891;37.380;-122.076;2022-11-20T01:08:44;5.30;;;2.80;;
64515;SDS011;50891;37.380;-122.076;2022-11-20T01:11:13;4.70;;;2.60;;
64515;SDS011;50891;37.380;-122.076;2022-11-20T01:13:41;5.03;;;2.83;;
64515;SDS011;50891;37.380;-122.076;2022-11-20T01:18:44;4.93;;;2.90;;
64515;SDS011;50891;37.380;-122.076;2022-11-20T01:21:12;4.72;;;2.92;;
64515;SDS011;50891;37.380;-122.076;2022-11-20T01:23:44;6.80;;;2.80;;
64515;SDS011;50891;37.380;-122.076;2022-11-20T01:26:12;7.28;;;2.70;;
64515;SDS011;50891;37.380;-122.076;2022-11-20T01:28:40;6.45;;;2.63;;
64515;SDS011;50891;37.380;-122.076;2022-11-20T01:31:14;6.25;;;2.90;;
64515;SDS011;50891;37.380;-122.076;2022-11-20T01:33:42;4.90;;;2.78;;
64515;SDS011;50891;37.380;-122.076;2022-11-20T01:36:09;7.75;;;2.70;;
64515;SDS011;50891;37.380;-122.076;2022-11-20T01:38:37;5.70;;;2.70;;
64515;SDS011;50891;37.380;-122.076;2022-11-20T01:41:03;5.57;;;2.72;;
64515;SDS011;50891;37.380;-122.076;2022-11-20T01:43:30;7.88;;;2.70;;
64515;SDS011;50891;37.380;-122.076;2022-11-20T01:46:13;7.43;;;2.90;;
64515;SDS011;50891;37.380;-122.076;2022-11-20T01:48:54;5.55;;;2.60;;
64515;SDS011;50891;37.380;-122.076;2022-11-20T01:51:29;6.22;;;2.70;;
64515;SDS011;50891;37.380;-122.076;2022-11-20T01:54:12;4.90;;;2.70;;
64515;SDS011;50891;37.380;-122.076;2022-11-20T01:56:42;5.30;;;2.63;;
64515;SDS011;50891;37.380;-122.076;2022-11-20T01:59:11;6.82;;;2.88;;
64515;SDS011;50891;37.380;-122.076;2022-11-20T02:01:41;5.13;;;2.53;;
64515;SDS011;50891;37.380;-122.076;2022-11-20T02:04:07;6.97;;;2.80;;
64515;SDS011;50891;37.380;-122.076;2022-11-20T02:06:40;6.70;;;2.80;;
64515;SDS011;50891;37.380;-122.076;2022-11-20T02:09:09;8.35;;;3.70;;
64515;SDS011;50891;37.380;-122.076;2022-11-20T02:11:36;9.10;;;3.53;;
64515;SDS011;50891;37.380;-122.076;2022-11-20T02:14:03;7.75;;;3.30;;
64515;SDS011;50891;37.380;-122.076;2022-11-20T02:16:41;6.03;;;3.13;;
64515;SDS011;50891;37.380;-122.076;2022-11-20T02:19:16;7.63;;;3.60;;
64515;SDS011;50891;37.380;-122.076;2022-11-20T02:24:44;12.18;;;3.65;;
64515;SDS011;50891;37.380;-122.076;2022-11-20T02:27:12;8.75;;;3.60;;
64515;SDS011;50891;37.380;-122.076;2022-11-20T02:30:13;9.23;;;3.50;;
64515;SDS011;50891;37.380;-122.076;2022-11-20T02:32:34;10.80;;;3.50;;
64515;SDS011;50891;37.380;-122.076;2022-11-20T02:37:36;9.07;;;3.47;;
64515;SDS011;50891;37.380;-122.076;2022-11-20T02:40:05;7.05;;;3.25;;
64515;SDS011;50891;37.380;-122.076;2022-11-20T02:42:32;8.57;;;3.20;;
64515;SDS011;50891;37.380;-122.076;2022-11-20T02:44:58;6.53;;;3.30;;
64515;SDS011;50891;37.380;-122.076;2022-11-20T02:47:24;6.97;;;3.35;;
64515;SDS011;50891;37.380;-122.076;2022-11-20T02:49:50;6.80;;;3.30;;
64515;SDS011;50891;37.380;-122.076;2022-11-20T02:52:16;6.85;;;3.17;;
64515;SDS011;50891;37.380;-122.076;2022-11-20T02:54:42;6.43;;;2.88;;
64515;SDS011;50891;37.380;-122.076;2022-11-20T02:57:08;7.30;;;3.30;;
64515;SDS011;50891;37.380;-122.076;2022-11-20T02:59:35;8.98;;;3.25;;
64515;SDS011;50891;37.380;-122.076;2022-11-20T03:02:01;9.02;;;3.35;;
64515;SDS011;50891;37.380;-122.076;2022-11-20T03:04:27;7.57;;;3.47;;
64515;SDS011;50891;37.380;-122.076;2022-11-20T03:06:53;9.80;;;3.20;;
64515;SDS011;50891;37.380;-122.076;2022-11-20T03:09:20;7.45;;;3.28;;
64515;SDS011;50891;37.380;-122.076;2022-11-20T03:11:46;7.78;;;3.10;;
64515;SDS011;50891;37.380;-122.076;2022-11-20T03:14:12;7.65;;;3.17;;
64515;SDS011;50891;37.380;-122.076;2022-11-20T03:16:39;9.38;;;3.30;;
64515;SDS011;50891;37.380;-122.076;2022-11-20T03:19:06;7.50;;;2.93;;
64515;SDS011;50891;37.380;-122.076;2022-11-20T03:21:35;9.48;;;3.40;;
64515;SDS011;50891;37.380;-122.076;2022-11-20T03:24:01;9.03;;;3.43;;
64515;SDS011;50891;37.380;-122.076;2022-11-20T03:26:28;7.68;;;3.35;;
64515;SDS011;50891;37.380;-122.076;2022-11-20T03:28:55;9.27;;;3.53;;
64515;SDS011;50891;37.380;-122.076;2022-11-20T03:31:27;8.50;;;3.10;;
64515;SDS011;50891;37.380;-122.076;2022-11-20T03:33:55;11.02;;;3.55;;
64515;SDS011;50891;37.380;-122.076;2022-11-20T03:36:23;11.40;;;3.58;;
64515;SDS011;50891;37.380;-122.076;2022-11-20T03:38:49;10.00;;;3.10;;
64515;SDS011;50891;37.380;-122.076;2022-11-20T03:41:17;8.82;;;3.20;;
64515;SDS011;50891;37.380;-122.076;2022-11-20T03:43:51;7.67;;;3.20;;
64515;SDS011;50891;37.380;-122.076;2022-11-20T03:46:19;8.43;;;3.30;;
64515;SDS011;50891;37.380;-122.076;2022-11-20T03:48:46;8.70;;;3.10;;
64515;SDS011;50891;37.380;-122.076;2022-11-20T03:51:13;9.32;;;3.38;;
64515;SDS011;50891;37.380;-122.076;2022-11-20T03:53:41;9.20;;;3.20;;
64515;SDS011;50891;37.380;-122.076;2022-11-20T03:56:09;9.93;;;3.30;;
64515;SDS011;50891;37.380;-122.076;2022-11-20T03:58:37;7.70;;;3.20;;
64515;SDS011;50891;37.380;-122.076;2022-11-20T04:01:07;9.87;;;3.40;;
64515;SDS011;50891;37.380;-122.076;2022-11-20T04:03:38;13.38;;;3.30;;
64515;SDS011;50891;37.380;-122.076;2022-11-20T04:06:09;10.27;;;3.60;;
64515;SDS011;50891;37.380;-122.076;2022-11-20T04:08:37;8.85;;;3.17;;
64515;SDS011;50891;37.380;-122.076;2022-11-20T04:11:10;11.98;;;3.38;;
64515;SDS011;50891;37.380;-122.076;2022-11-20T04:13:40;8.77;;;3.27;;
64515;SDS011;50891;37.380;-122.076;2022-11-20T04:16:07;15.38;;;3.50;;
64515;SDS011;50891;37.380;-122.076;2022-11-20T04:18:34;11.38;;;3.70;;
64515;SDS011;50891;37.380;-122.076;2022-11-20T04:21:02;8.85;;;3.42;;
64515;SDS011;50891;37.380;-122.076;2022-11-20T04:23:29;11.65;;;3.70;;
64515;SDS011;50891;37.380;-122.076;2022-11-20T04:26:00;10.30;;;3.70;;
64515;SDS011;50891;37.380;-122.076;2022-11-20T04:28:33;9.57;;;3.50;;
64515;SDS011;50891;37.380;-122.076;2022-11-20T04:31:07;11.13;;;3.60;;
64515;SDS011;50891;37.380;-122.076;2022-11-20T04:33:35;9.30;;;3.58;;
64515;SDS011;50891;37.380;-122.076;2022-11-20T04:36:03;9.70;;;3.60;;
64515;SDS011;50891;37.380;-122.076;2022-11-20T04:38:36;11.35;;;3.50;;
64515;SDS011;50891;37.380;-122.076;2022-11-20T04:41:03;10.25;;;3.50;;
64515;SDS011;50891;37.380;-122.076;2022-11-20T04:43:31;10.07;;;3.50;;
64515;SDS011;50891;37.380;-122.076;2022-11-20T04:45:58;11.25;;;3.47;;
64515;SDS011;50891;37.380;-122.076;2022-11-20T04:48:26;11.07;;;3.63;;
64515;SDS011;50891;37.380;-122.076;2022-11-20T04:50:54;13.43;;;3.72;;
64515;SDS011;50891;37.380;-122.076;2022-11-20T04:53:20;12.63;;;3.60;;
64515;SDS011;50891;37.380;-122.076;2022-11-20T04:55:47;7.75;;;3.60;;
64515;SDS011;50891;37.380;-122.076;2022-11-20T04:58:14;10.50;;;3.80;;
64515;SDS011;50891;37.380;-122.076;2022-11-20T05:00:40;10.10;;;3.75;;
64515;SDS011;50891;37.380;-122.076;2022-11-20T05:03:07;8.43;;;3.40;;
64515;SDS011;50891;37.380;-122.076;2022-11-20T05:05:33;8.68;;;3.70;;
64515;SDS011;50891;37.380;-122.076;2022-11-20T05:08:00;9.50;;;3.97;;
64515;SDS011;50891;37.380;-122.076;2022-11-20T05:10:27;9.63;;;3.90;;
64515;SDS011;50891;37.380;-122.076;2022-11-20T05:12:53;10.98;;;3.95;;
64515;SDS011;50891;37.380;-122.076;2022-11-20T05:15:20;9.93;;;3.80;;
64515;SDS011;50891;37.380;-122.076;2022-11-20T05:17:49;8.48;;;3.55;;
64515;SDS011;50891;37.380;-122.076;2022-11-20T05:20:16;12.32;;;4.32;;
64515;SDS011;50891;37.380;-122.076;2022-11-20T05:22:43;11.05;;;4.72;;
64515;SDS011;50891;37.380;-122.076;2022-11-20T05:25:09;9.25;;;4.53;;
64515;SDS011;50891;37.380;-122.076;2022-11-20T05:27:36;10.60;;;4.95;;
64515;SDS011;50891;37.380;-122.076;2022-11-20T05:30:03;7.65;;;4.22;;
64515;SDS011;50891;37.380;-122.076;2022-11-20T05:32:30;11.43;;;4.53;;
64515;SDS011;50891;37.380;-122.076;2022-11-20T05:34:56;9.75;;;4.40;;
64515;SDS011;50891;37.380;-122.076;2022-11-20T05:37:22;8.63;;;4.50;;
64515;SDS011;50891;37.380;-122.076;2022-11-20T05:39:49;9.98;;;4.47;;
64515;SDS011;50891;37.380;-122.076;2022-11-20T05:42:15;9.40;;;4.33;;
64515;SDS011;50891;37.380;-122.076;2022-11-20T05:45:00;8.95;;;4.30;;
64515;SDS011;50891;37.380;-122.076;2022-11-20T05:47:30;9.10;;;4.35;;
64515;SDS011;50891;37.380;-122.076;2022-11-20T05:49:58;10.10;;;4.28;;
64515;SDS011;50891;37.380;-122.076;2022-11-20T05:52:27;8.02;;;4.25;;
64515;SDS011;50891;37.380;-122.076;2022-11-20T05:54:54;8.88;;;4.50;;
64515;SDS011;50891;37.380;-122.076;2022-11-20T05:57:21;8.43;;;4.43;;
64515;SDS011;50891;37.380;-122.076;2022-11-20T05:59:47;7.40;;;4.30;;
64515;SDS011;50891;37.380;-122.076;2022-11-20T06:02:13;10.18;;;4.80;;
64515;SDS011;50891;37.380;-122.076;2022-11-20T06:04:39;9.07;;;4.80;;
64515;SDS011;50891;37.380;-122.076;2022-11-20T06:07:06;8.82;;;4.40;;
64515;SDS011;50891;37.380;-122.076;2022-11-20T06:09:32;11.93;;;4.50;;
64515;SDS011;50891;37.380;-122.076;2022-11-20T06:11:58;10.10;;;4.38;;
